sensor_id;sensor_type;location;lat;lon;timestamp;P1;durP1;ratioP1;P2;durP2;ratioP2
15273;SDS011;7738;49.532;11.156;2023-11-19T00:02:06;3.03;;;2.42;;
15273;SDS011;7738;49.532;11.156;2023-11-19T00:04:39;3.58;;;2.50;;
15273;SDS011;7738;49.532;11.156;2023-11-19T00:07:10;4.03;;;2.33;;
15273;SDS011;7738;49.532;11.156;2023-11-19T00:09:40;3.45;;;2.72;;
15273;SDS011;7738;49.532;11.156;2023-11-19T00:12:11;2.67;;;1.95;;
15273;SDS011;7738;49.532;11.156;2023-11-19T00:14:41;3.15;;;2.45;;
15273;SDS011;7738;49.532;11.156;2023-11-19T00:17:12;2.50;;;2.25;;
15273;SDS011;7738;49.532;11.156;2023-11-19T00:19:45;3.38;;;2.33;;
15273;SDS011;7738;49.532;11.156;2023-11-19T00:22:17;2.78;;;2.40;;
15273;SDS011;7738;49.532;11.156;2023-11-19T00:24:49;3.55;;;2.35;;
15273;SDS011;7738;49.532;11.156;2023-11-19T00:27:19;2.60;;;2.13;;
15273;SDS011;7738;49.532;11.156;2023-11-19T00:29:49;2.60;;;2.40;;
15273;SDS011;7738;49.532;11.156;2023-11-19T00:32:20;3.50;;;2.80;;
15273;SDS011;7738;49.532;11.156;2023-11-19T00:34:53;3.00;;;2.22;;
15273;SDS011;7738;49.532;11.156;2023-11-19T00:37:23;3.00;;;2.13;;
15273;SDS011;7738;49.532;11.156;2023-11-19T00:39:53;2.80;;;2.47;;
15273;SDS011;7738;49.532;11.156;2023-11-19T00:42:25;2.35;;;1.95;;
15273;SDS011;7738;49.532;11.156;2023-11-19T00:44:55;2.58;;;2.22;;
15273;SDS011;7738;49.532;11.156;2023-11-19T00:47:25;2.95;;;2.53;;
15273;SDS011;7738;49.532;11.156;2023-11-19T00:50:00;3.03;;;2.72;;
15273;SDS011;7738;49.532;11.156;2023-11-19T00:52:30;3.08;;;2.40;;
15273;SDS011;7738;49.532;11.156;2023-11-19T00:55:02;3.75;;;2.40;;
15273;SDS011;7738;49.532;11.156;2023-11-19T00:57:34;2.97;;;2.05;;
15273;SDS011;7738;49.532;11.156;2023-11-19T01:00:05;3.22;;;2.83;;
15273;SDS011;7738;49.532;11.156;2023-11-19T01:02:46;4.20;;;2.47;;
15273;SDS011;7738;49.532;11.156;2023-11-19T01:05:21;3.70;;;2.42;;
15273;SDS011;7738;49.532;11.156;2023-11-19T01:07:51;4.03;;;1.88;;
15273;SDS011;7738;49.532;11.156;2023-11-19T01:10:22;3.30;;;2.20;;
15273;SDS011;7738;49.532;11.156;2023-11-19T01:12:52;2.92;;;2.00;;
15273;SDS011;7738;49.532;11.156;2023-11-19T01:15:23;2.60;;;2.33;;
15273;SDS011;7738;49.532;11.156;2023-11-19T01:17:54;3.20;;;2.35;;
15273;SDS011;7738;49.532;11.156;2023-11-19T01:20:28;2.72;;;2.28;;
15273;SDS011;7738;49.532;11.156;2023-11-19T01:23:00;3.50;;;2.33;;
15273;SDS011;7738;49.532;11.156;2023-11-19T01:25:31;3.03;;;2.22;;
15273;SDS011;7738;49.532;11.156;2023-11-19T01:28:02;2.78;;;2.08;;
15273;SDS011;7738;49.532;11.156;2023-11-19T01:30:33;2.63;;;2.08;;
15273;SDS011;7738;49.532;11.156;2023-11-19T01:33:03;3.75;;;1.88;;
15273;SDS011;7738;49.532;11.156;2023-11-19T01:35:37;3.17;;;2.50;;
15273;SDS011;7738;49.532;11.156;2023-11-19T01:38:07;2.97;;;2.47;;
15273;SDS011;7738;49.532;11.156;2023-11-19T01:40:38;2.83;;;1.88;;
15273;SDS011;7738;49.532;11.156;2023-11-19T01:43:09;3.45;;;2.53;;
15273;SDS011;7738;49.532;11.156;2023-11-19T01:45:41;4.35;;;2.58;;
15273;SDS011;7738;49.532;11.156;2023-11-19T01:48:15;2.95;;;2.03;;
15273;SDS011;7738;49.532;11.156;2023-11-19T01:50:47;3.17;;;2.60;;
15273;SDS011;7738;49.532;11.156;2023-11-19T01:53:28;2.72;;;2.22;;
15273;SDS011;7738;49.532;11.156;2023-11-19T01:55:59;2.80;;;2.38;;
15273;SDS011;7738;49.532;11.156;2023-11-19T01:58:30;3.38;;;2.42;;
15273;SDS011;7738;49.532;11.156;2023-11-19T02:01:01;2.88;;;2.35;;
15273;SDS011;7738;49.532;11.156;2023-11-19T02:03:32;3.25;;;2.67;;
15273;SDS011;7738;49.532;11.156;2023-11-19T02:06:06;4.15;;;3.13;;
15273;SDS011;7738;49.532;11.156;2023-11-19T02:08:38;3.28;;;2.15;;
15273;SDS011;7738;49.532;11.156;2023-11-19T02:11:08;2.85;;;2.35;;
15273;SDS011;7738;49.532;11.156;2023-11-19T02:13:39;3.25;;;2.40;;
15273;SDS011;7738;49.532;11.156;2023-11-19T02:16:11;2.90;;;2.38;;
15273;SDS011;7738;49.532;11.156;2023-11-19T02:18:41;3.67;;;2.60;;
15273;SDS011;7738;49.532;11.156;2023-11-19T02:21:14;6.28;;;2.30;;
15273;SDS011;7738;49.532;11.156;2023-11-19T02:23:45;4.28;;;2.38;;
15273;SDS011;7738;49.532;11.156;2023-11-19T02:26:16;3.33;;;2.72;;
15273;SDS011;7738;49.532;11.156;2023-11-19T02:28:55;4.35;;;2.97;;
15273;SDS011;7738;49.532;11.156;2023-11-19T02:31:25;3.72;;;2.50;;
15273;SDS011;7738;49.532;11.156;2023-11-19T02:33:56;2.63;;;2.20;;
15273;SDS011;7738;49.532;11.156;2023-11-19T02:36:26;3.03;;;2.72;;
15273;SDS011;7738;49.532;11.156;2023-11-19T02:38:58;3.13;;;2.80;;
15273;SDS011;7738;49.532;11.156;2023-11-19T02:41:29;4.00;;;2.72;;
15273;SDS011;7738;49.532;11.156;2023-11-19T02:44:03;2.60;;;2.08;;
15273;SDS011;7738;49.532;11.156;2023-11-19T02:46:34;3.28;;;2.35;;
15273;SDS011;7738;49.532;11.156;2023-11-19T02:49:04;2.53;;;1.88;;
15273;SDS011;7738;49.532;11.156;2023-11-19T02:51:35;2.40;;;2.08;;
15273;SDS011;7738;49.532;11.156;2023-11-19T02:54:05;3.38;;;2.40;;
15273;SDS011;7738;49.532;11.156;2023-11-19T02:56:36;4.13;;;2.42;;
15273;SDS011;7738;49.532;11.156;2023-11-19T02:59:10;3.75;;;2.38;;
15273;SDS011;7738;49.532;11.156;2023-11-19T03:01:53;4.60;;;2.55;;
15273;SDS011;7738;49.532;11.156;2023-11-19T03:04:26;4.93;;;3.90;;
15273;SDS011;7738;49.532;11.156;2023-11-19T03:06:57;3.83;;;2.58;;
15273;SDS011;7738;49.532;11.156;2023-11-19T03:09:28;4.88;;;2.80;;
15273;SDS011;7738;49.532;11.156;2023-11-19T03:12:00;3.45;;;2.40;;
15273;SDS011;7738;49.532;11.156;2023-11-19T03:14:35;3.63;;;2.72;;
15273;SDS011;7738;49.532;11.156;2023-11-19T03:17:06;5.55;;;2.72;;
15273;SDS011;7738;49.532;11.156;2023-11-19T03:19:37;3.70;;;2.45;;
15273;SDS011;7738;49.532;11.156;2023-11-19T03:22:07;3.83;;;2.67;;
15273;SDS011;7738;49.532;11.156;2023-11-19T03:24:38;3.20;;;2.20;;
15273;SDS011;7738;49.532;11.156;2023-11-19T03:27:09;5.43;;;3.00;;
15273;SDS011;7738;49.532;11.156;2023-11-19T03:29:44;3.97;;;2.05;;
15273;SDS011;7738;49.532;11.156;2023-11-19T03:32:15;4.90;;;2.53;;
15273;SDS011;7738;49.532;11.156;2023-11-19T03:34:46;3.67;;;2.70;;
15273;SDS011;7738;49.532;11.156;2023-11-19T03:37:17;4.65;;;2.53;;
15273;SDS011;7738;49.532;11.156;2023-11-19T03:39:47;4.10;;;3.10;;
15273;SDS011;7738;49.532;11.156;2023-11-19T03:42:18;4.53;;;2.85;;
15273;SDS011;7738;49.532;11.156;2023-11-19T03:44:51;4.18;;;2.85;;
15273;SDS011;7738;49.532;11.156;2023-11-19T03:47:22;5.30;;;3.45;;
15273;SDS011;7738;49.532;11.156;2023-11-19T03:49:52;4.65;;;3.67;;
15273;SDS011;7738;49.532;11.156;2023-11-19T03:52:22;4.78;;;3.25;;
15273;SDS011;7738;49.532;11.156;2023-11-19T03:54:53;4.88;;;3.75;;
15273;SDS011;7738;49.532;11.156;2023-11-19T03:57:24;5.88;;;3.95;;
15273;SDS011;7738;49.532;11.156;2023-11-19T03:59:57;4.22;;;3.15;;
15273;SDS011;7738;49.532;11.156;2023-11-19T04:02:38;7.43;;;4.18;;
15273;SDS011;7738;49.532;11.156;2023-11-19T04:05:09;4.45;;;3.67;;
15273;SDS011;7738;49.532;11.156;2023-11-19T04:07:39;6.90;;;3.95;;
15273;SDS011;7738;49.532;11.156;2023-11-19T04:10:11;5.50;;;3.92;;
15273;SDS011;7738;49.532;11.156;2023-11-19T04:12:41;7.35;;;4.20;;
15273;SDS011;7738;49.532;11.156;2023-11-19T04:15:14;7.47;;;4.47;;
15273;SDS011;7738;49.532;11.156;2023-11-19T04:17:44;6.30;;;3.97;;
15273;SDS011;7738;49.532;11.156;2023-11-19T04:20:15;8.70;;;5.07;;
15273;SDS011;7738;49.532;11.156;2023-11-19T04:22:46;6.03;;;4.93;;
15273;SDS011;7738;49.532;11.156;2023-11-19T04:25:16;6.20;;;4.60;;
15273;SDS011;7738;49.532;11.156;2023-11-19T04:27:49;6.88;;;3.90;;
15273;SDS011;7738;49.532;11.156;2023-11-19T04:30:21;5.93;;;4.38;;
15273;SDS011;7738;49.532;11.156;2023-11-19T04:32:52;7.30;;;4.38;;
15273;SDS011;7738;49.532;11.156;2023-11-19T04:35:22;6.45;;;4.93;;
15273;SDS011;7738;49.532;11.156;2023-11-19T04:37:53;6.68;;;4.55;;
15273;SDS011;7738;49.532;11.156;2023-11-19T04:40:24;11.70;;;4.72;;
15273;SDS011;7738;49.532;11.156;2023-11-19T04:42:54;7.28;;;4.70;;
15273;SDS011;7738;49.532;11.156;2023-11-19T04:45:27;6.47;;;4.05;;
15273;SDS011;7738;49.532;11.156;2023-11-19T04:47:58;7.38;;;4.25;;
15273;SDS011;7738;49.532;11.156;2023-11-19T04:50:29;6.80;;;4.85;;
15273;SDS011;7738;49.532;11.156;2023-11-19T04:52:59;6.55;;;4.57;;
15273;SDS011;7738;49.532;11.156;2023-11-19T04:55:30;8.18;;;5.22;;
15273;SDS011;7738;49.532;11.156;2023-11-19T04:58:00;5.93;;;4.65;;
15273;SDS011;7738;49.532;11.156;2023-11-19T05:00:33;8.68;;;4.97;;
15273;SDS011;7738;49.532;11.156;2023-11-19T05:03:03;8.40;;;4.97;;
15273;SDS011;7738;49.532;11.156;2023-11-19T05:05:35;6.68;;;4.95;;
15273;SDS011;7738;49.532;11.156;2023-11-19T05:08:05;7.80;;;5.22;;
15273;SDS011;7738;49.532;11.156;2023-11-19T05:10:35;9.48;;;6.03;;
15273;SDS011;7738;49.532;11.156;2023-11-19T05:13:05;8.48;;;5.40;;
15273;SDS011;7738;49.532;11.156;2023-11-19T05:15:39;9.77;;;5.03;;
15273;SDS011;7738;49.532;11.156;2023-11-19T05:18:09;8.57;;;5.90;;
15273;SDS011;7738;49.532;11.156;2023-11-19T05:20:40;9.95;;;6.43;;
15273;SDS011;7738;49.532;11.156;2023-11-19T05:23:10;10.05;;;6.40;;
15273;SDS011;7738;49.532;11.156;2023-11-19T05:25:43;10.23;;;5.60;;
15273;SDS011;7738;49.532;11.156;2023-11-19T05:28:14;9.73;;;5.57;;
15273;SDS011;7738;49.532;11.156;2023-11-19T05:30:47;7.65;;;5.38;;
15273;SDS011;7738;49.532;11.156;2023-11-19T05:33:17;9.30;;;5.78;;
15273;SDS011;7738;49.532;11.156;2023-11-19T05:35:48;9.05;;;5.85;;
15273;SDS011;7738;49.532;11.156;2023-11-19T05:38:18;9.50;;;5.72;;
15273;SDS011;7738;49.532;11.156;2023-11-19T05:40:49;10.65;;;5.97;;
15273;SDS011;7738;49.532;11.156;2023-11-19T05:43:19;7.60;;;4.88;;
15273;SDS011;7738;49.532;11.156;2023-11-19T05:45:52;8.20;;;5.47;;
15273;SDS011;7738;49.532;11.156;2023-11-19T05:48:22;7.35;;;5.20;;
15273;SDS011;7738;49.532;11.156;2023-11-19T05:50:53;8.07;;;5.22;;
15273;SDS011;7738;49.532;11.156;2023-11-19T05:53:23;9.05;;;5.43;;
15273;SDS011;7738;49.532;11.156;2023-11-19T05:55:53;9.65;;;5.60;;
15273;SDS011;7738;49.532;11.156;2023-11-19T05:58:24;8.02;;;5.32;;
15273;SDS011;7738;49.532;11.156;2023-11-19T06:00:58;8.30;;;5.53;;
15273;SDS011;7738;49.532;11.156;2023-11-19T06:03:30;8.13;;;5.00;;
15273;SDS011;7738;49.532;11.156;2023-11-19T06:06:01;7.78;;;4.90;;
15273;SDS011;7738;49.532;11.156;2023-11-19T06:08:31;8.02;;;5.40;;
15273;SDS011;7738;49.532;11.156;2023-11-19T06:11:02;7.15;;;4.97;;
15273;SDS011;7738;49.532;11.156;2023-11-19T06:13:32;10.88;;;5.45;;
15273;SDS011;7738;49.532;11.156;2023-11-19T06:16:06;8.65;;;5.38;;
15273;SDS011;7738;49.532;11.156;2023-11-19T06:18:37;8.02;;;4.45;;
15273;SDS011;7738;49.532;11.156;2023-11-19T06:21:08;7.15;;;4.05;;
15273;SDS011;7738;49.532;11.156;2023-11-19T06:23:38;7.30;;;4.60;;
15273;SDS011;7738;49.532;11.156;2023-11-19T06:26:09;7.50;;;4.75;;
15273;SDS011;7738;49.532;11.156;2023-11-19T06:28:40;6.57;;;3.75;;
15273;SDS011;7738;49.532;11.156;2023-11-19T06:31:14;6.72;;;4.03;;
15273;SDS011;7738;49.532;11.156;2023-11-19T06:33:44;9.95;;;4.53;;
15273;SDS011;7738;49.532;11.156;2023-11-19T06:36:14;6.75;;;4.28;;
15273;SDS011;7738;49.532;11.156;2023-11-19T06:38:45;6.78;;;4.63;;
15273;SDS011;7738;49.532;11.156;2023-11-19T06:41:16;7.70;;;4.63;;
15273;SDS011;7738;49.532;11.156;2023-11-19T06:43:46;8.20;;;4.32;;
15273;SDS011;7738;49.532;11.156;2023-11-19T06:46:19;7.80;;;4.55;;
15273;SDS011;7738;49.532;11.156;2023-11-19T06:48:49;8.57;;;5.50;;
15273;SDS011;7738;49.532;11.156;2023-11-19T06:51:20;9.35;;;4.85;;
15273;SDS011;7738;49.532;11.156;2023-11-19T06:53:50;7.30;;;4.68;;
15273;SDS011;7738;49.532;11.156;2023-11-19T06:56:21;8.98;;;5.90;;
15273;SDS011;7738;49.532;11.156;2023-11-19T06:58:51;8.07;;;5.05;;
15273;SDS011;7738;49.532;11.156;2023-11-19T07:01:25;7.82;;;4.65;;
15273;SDS011;7738;49.532;11.156;2023-11-19T07:03:55;9.90;;;7.38;;
15273;SDS011;7738;49.532;11.156;2023-11-19T07:06:27;9.70;;;3.92;;
15273;SDS011;7738;49.532;11.156;2023-11-19T07:09:01;7.25;;;4.20;;
15273;SDS011;7738;49.532;11.156;2023-11-19T07:11:37;8.00;;;4.60;;
15273;SDS011;7738;49.532;11.156;2023-11-19T07:14:08;8.15;;;4.40;;
15273;SDS011;7738;49.532;11.156;2023-11-19T07:16:41;6.57;;;4.97;;
15273;SDS011;7738;49.532;11.156;2023-11-19T07:19:12;6.55;;;3.60;;
15273;SDS011;7738;49.532;11.156;2023-11-19T07:21:43;10.68;;;4.70;;
15273;SDS011;7738;49.532;11.156;2023-11-19T07:24:13;7.97;;;5.10;;
15273;SDS011;7738;49.532;11.156;2023-11-19T07:26:44;8.63;;;5.25;;
15273;SDS011;7738;49.532;11.156;2023-11-19T07:29:14;8.65;;;5.15;;
15273;SDS011;7738;49.532;11.156;2023-11-19T07:31:50;9.25;;;5.93;;
15273;SDS011;7738;49.532;11.156;2023-11-19T07:34:20;6.45;;;3.63;;
15273;SDS011;7738;49.532;11.156;2023-11-19T07:36:51;6.88;;;3.50;;
15273;SDS011;7738;49.532;11.156;2023-11-19T07:39:24;9.38;;;5.80;;
15273;SDS011;7738;49.532;11.156;2023-11-19T07:41:57;6.80;;;4.40;;
15273;SDS011;7738;49.532;11.156;2023-11-19T07:44:27;5.57;;;3.65;;
15273;SDS011;7738;49.532;11.156;2023-11-19T07:47:01;7.28;;;3.58;;
15273;SDS011;7738;49.532;11.156;2023-11-19T07:49:31;6.30;;;3.90;;
15273;SDS011;7738;49.532;11.156;2023-11-19T07:52:02;7.05;;;3.75;;
15273;SDS011;7738;49.532;11.156;2023-11-19T07:54:48;5.15;;;3.45;;
15273;SDS011;7738;49.532;11.156;2023-11-19T07:57:18;4.63;;;3.65;;
15273;SDS011;7738;49.532;11.156;2023-11-19T07:59:50;6.55;;;3.80;;
15273;SDS011;7738;49.532;11.156;2023-11-19T08:02:23;7.82;;;3.30;;
15273;SDS011;7738;49.532;11.156;2023-11-19T08:04:53;7.35;;;3.53;;
15273;SDS011;7738;49.532;11.156;2023-11-19T08:07:24;3.58;;;2.70;;
15273;SDS011;7738;49.532;11.156;2023-11-19T08:09:54;5.88;;;3.47;;
15273;SDS011;7738;49.532;11.156;2023-11-19T08:12:25;6.13;;;3.25;;
15273;SDS011;7738;49.532;11.156;2023-11-19T08:14:55;3.90;;;3.08;;
15273;SDS011;7738;49.532;11.156;2023-11-19T08:17:28;5.82;;;3.15;;
15273;SDS011;7738;49.532;11.156;2023-11-19T08:19:58;6.22;;;3.25;;
15273;SDS011;7738;49.532;11.156;2023-11-19T08:22:31;6.63;;;2.20;;
15273;SDS011;7738;49.532;11.156;2023-11-19T08:25:02;3.72;;;2.33;;
15273;SDS011;7738;49.532;11.156;2023-11-19T08:27:33;3.35;;;2.17;;
15273;SDS011;7738;49.532;11.156;2023-11-19T08:30:04;5.68;;;2.42;;
15273;SDS011;7738;49.532;11.156;2023-11-19T08:32:38;2.70;;;1.63;;
15273;SDS011;7738;49.532;11.156;2023-11-19T08:35:08;3.50;;;2.10;;
15273;SDS011;7738;49.532;11.156;2023-11-19T08:37:39;5.35;;;3.03;;
15273;SDS011;7738;49.532;11.156;2023-11-19T08:40:10;2.92;;;1.80;;
15273;SDS011;7738;49.532;11.156;2023-11-19T08:42:41;3.75;;;2.35;;
15273;SDS011;7738;49.532;11.156;2023-11-19T08:45:12;3.75;;;2.10;;
15273;SDS011;7738;49.532;11.156;2023-11-19T08:47:45;3.03;;;2.08;;
15273;SDS011;7738;49.532;11.156;2023-11-19T08:50:15;2.50;;;1.58;;
15273;SDS011;7738;49.532;11.156;2023-11-19T08:52:45;4.13;;;1.80;;
15273;SDS011;7738;49.532;11.156;2023-11-19T08:55:16;3.90;;;2.67;;
15273;SDS011;7738;49.532;11.156;2023-11-19T08:57:46;4.82;;;3.28;;
15273;SDS011;7738;49.532;11.156;2023-11-19T09:00:17;5.68;;;2.20;;
15273;SDS011;7738;49.532;11.156;2023-11-19T09:02:50;4.78;;;2.50;;
15273;SDS011;7738;49.532;11.156;2023-11-19T09:05:21;7.80;;;3.22;;
15273;SDS011;7738;49.532;11.156;2023-11-19T09:07:51;5.05;;;2.53;;
15273;SDS011;7738;49.532;11.156;2023-11-19T09:10:21;6.20;;;3.22;;
15273;SDS011;7738;49.532;11.156;2023-11-19T09:12:53;4.90;;;2.70;;
15273;SDS011;7738;49.532;11.156;2023-11-19T09:15:24;4.68;;;2.15;;
15273;SDS011;7738;49.532;11.156;2023-11-19T09:17:57;5.53;;;2.67;;
15273;SDS011;7738;49.532;11.156;2023-11-19T09:20:27;2.95;;;1.67;;
15273;SDS011;7738;49.532;11.156;2023-11-19T09:23:04;2.63;;;1.63;;
15273;SDS011;7738;49.532;11.156;2023-11-19T09:25:36;4.85;;;1.15;;
15273;SDS011;7738;49.532;11.156;2023-11-19T09:28:09;2.38;;;1.42;;
15273;SDS011;7738;49.532;11.156;2023-11-19T09:30:39;4.88;;;0.88;;
15273;SDS011;7738;49.532;11.156;2023-11-19T09:33:12;1.40;;;1.05;;
15273;SDS011;7738;49.532;11.156;2023-11-19T09:35:43;2.10;;;1.10;;
15273;SDS011;7738;49.532;11.156;2023-11-19T09:38:13;4.05;;;0.82;;
15273;SDS011;7738;49.532;11.156;2023-11-19T09:40:43;2.08;;;0.95;;
15273;SDS011;7738;49.532;11.156;2023-11-19T09:43:14;1.33;;;0.75;;
15273;SDS011;7738;49.532;11.156;2023-11-19T09:45:46;5.55;;;1.08;;
15273;SDS011;7738;49.532;11.156;2023-11-19T09:48:21;3.65;;;0.88;;
15273;SDS011;7738;49.532;11.156;2023-11-19T09:50:54;1.55;;;0.70;;
15273;SDS011;7738;49.532;11.156;2023-11-19T09:53:25;4.22;;;1.13;;
15273;SDS011;7738;49.532;11.156;2023-11-19T09:55:56;1.80;;;0.60;;
15273;SDS011;7738;49.532;11.156;2023-11-19T09:58:26;1.25;;;0.80;;
15273;SDS011;7738;49.532;11.156;2023-11-19T10:00:57;2.30;;;0.90;;
15273;SDS011;7738;49.532;11.156;2023-11-19T10:03:35;2.90;;;0.95;;
15273;SDS011;7738;49.532;11.156;2023-11-19T10:06:07;3.17;;;1.05;;
15273;SDS011;7738;49.532;11.156;2023-11-19T10:08:38;2.65;;;0.65;;
15273;SDS011;7738;49.532;11.156;2023-11-19T10:11:09;2.85;;;0.57;;
15273;SDS011;7738;49.532;11.156;2023-11-19T10:13:40;1.17;;;0.60;;
15273;SDS011;7738;49.532;11.156;2023-11-19T10:16:14;1.70;;;0.80;;
15273;SDS011;7738;49.532;11.156;2023-11-19T10:18:48;1.13;;;0.43;;
15273;SDS011;7738;49.532;11.156;2023-11-19T10:21:19;1.30;;;0.47;;
15273;SDS011;7738;49.532;11.156;2023-11-19T10:23:51;8.07;;;0.63;;
15273;SDS011;7738;49.532;11.156;2023-11-19T10:26:23;0.65;;;0.30;;
15273;SDS011;7738;49.532;11.156;2023-11-19T10:28:55;1.95;;;0.50;;
15273;SDS011;7738;49.532;11.156;2023-11-19T10:31:25;2.90;;;1.40;;
15273;SDS011;7738;49.532;11.156;2023-11-19T10:33:58;2.08;;;0.52;;
15273;SDS011;7738;49.532;11.156;2023-11-19T10:36:38;1.50;;;0.20;;
15273;SDS011;7738;49.532;11.156;2023-11-19T10:39:10;2.15;;;0.43;;
15273;SDS011;7738;49.532;11.156;2023-11-19T10:41:40;1.80;;;1.00;;
15273;SDS011;7738;49.532;11.156;2023-11-19T10:44:11;2.00;;;0.95;;
15273;SDS011;7738;49.532;11.156;2023-11-19T10:46:41;1.23;;;0.30;;
15273;SDS011;7738;49.532;11.156;2023-11-19T10:49:14;0.98;;;0.50;;
15273;SDS011;7738;49.532;11.156;2023-11-19T10:51:45;2.03;;;0.77;;
15273;SDS011;7738;49.532;11.156;2023-11-19T10:54:17;3.60;;;0.57;;
15273;SDS011;7738;49.532;11.156;2023-11-19T10:56:49;1.55;;;0.50;;
15273;SDS011;7738;49.532;11.156;2023-11-19T10:59:25;4.35;;;1.00;;
15273;SDS011;7738;49.532;11.156;2023-11-19T11:02:00;2.45;;;0.60;;
15273;SDS011;7738;49.532;11.156;2023-11-19T11:04:39;2.92;;;0.22;;
15273;SDS011;7738;49.532;11.156;2023-11-19T11:07:09;1.90;;;0.55;;
15273;SDS011;7738;49.532;11.156;2023-11-19T11:09:41;0.73;;;0.38;;
15273;SDS011;7738;49.532;11.156;2023-11-19T11:12:13;2.17;;;0.32;;
15273;SDS011;7738;49.532;11.156;2023-11-19T11:14:44;1.30;;;0.50;;
15273;SDS011;7738;49.532;11.156;2023-11-19T11:17:17;1.00;;;0.45;;
15273;SDS011;7738;49.532;11.156;2023-11-19T11:19:50;2.22;;;0.70;;
15273;SDS011;7738;49.532;11.156;2023-11-19T11:22:20;0.95;;;0.30;;
15273;SDS011;7738;49.532;11.156;2023-11-19T11:25:09;0.52;;;0.20;;
15273;SDS011;7738;49.532;11.156;2023-11-19T11:27:49;0.85;;;0.28;;
15273;SDS011;7738;49.532;11.156;2023-11-19T11:30:46;2.05;;;0.45;;
15273;SDS011;7738;49.532;11.156;2023-11-19T11:33:28;0.50;;;0.30;;
15273;SDS011;7738;49.532;11.156;2023-11-19T11:36:11;0.60;;;0.10;;
15273;SDS011;7738;49.532;11.156;2023-11-19T11:38:47;0.50;;;0.10;;
15273;SDS011;7738;49.532;11.156;2023-11-19T11:41:19;1.42;;;0.32;;
15273;SDS011;7738;49.532;11.156;2023-11-19T11:43:55;0.40;;;0.17;;
15273;SDS011;7738;49.532;11.156;2023-11-19T11:49:28;1.58;;;0.38;;
15273;SDS011;7738;49.532;11.156;2023-11-19T11:52:04;2.28;;;0.30;;
15273;SDS011;7738;49.532;11.156;2023-11-19T11:54:35;1.30;;;0.50;;
15273;SDS011;7738;49.532;11.156;2023-11-19T11:57:08;1.10;;;0.43;;
15273;SDS011;7738;49.532;11.156;2023-11-19T11:59:48;3.38;;;0.45;;
15273;SDS011;7738;49.532;11.156;2023-11-19T12:02:19;4.93;;;0.30;;
15273;SDS011;7738;49.532;11.156;2023-11-19T12:04:51;3.08;;;0.20;;
15273;SDS011;7738;49.532;11.156;2023-11-19T12:07:24;1.27;;;0.20;;
15273;SDS011;7738;49.532;11.156;2023-11-19T12:10:05;2.28;;;0.75;;
15273;SDS011;7738;49.532;11.156;2023-11-19T12:12:39;3.97;;;0.50;;
15273;SDS011;7738;49.532;11.156;2023-11-19T12:15:10;1.38;;;0.22;;
15273;SDS011;7738;49.532;11.156;2023-11-19T12:17:48;1.92;;;1.27;;
15273;SDS011;7738;49.532;11.156;2023-11-19T12:20:19;2.17;;;0.40;;
15273;SDS011;7738;49.532;11.156;2023-11-19T12:22:56;3.05;;;0.30;;
15273;SDS011;7738;49.532;11.156;2023-11-19T12:25:26;1.00;;;0.45;;
15273;SDS011;7738;49.532;11.156;2023-11-19T12:27:56;0.75;;;0.30;;
15273;SDS011;7738;49.532;11.156;2023-11-19T12:30:26;1.65;;;0.47;;
15273;SDS011;7738;49.532;11.156;2023-11-19T12:32:57;2.85;;;0.57;;
15273;SDS011;7738;49.532;11.156;2023-11-19T12:35:27;3.05;;;0.22;;
15273;SDS011;7738;49.532;11.156;2023-11-19T12:38:00;3.05;;;0.47;;
15273;SDS011;7738;49.532;11.156;2023-11-19T12:40:30;4.82;;;0.50;;
15273;SDS011;7738;49.532;11.156;2023-11-19T12:43:00;2.28;;;0.63;;
15273;SDS011;7738;49.532;11.156;2023-11-19T12:45:34;1.02;;;0.40;;
15273;SDS011;7738;49.532;11.156;2023-11-19T12:48:05;2.42;;;0.60;;
15273;SDS011;7738;49.532;11.156;2023-11-19T12:50:50;1.60;;;0.70;;
15273;SDS011;7738;49.532;11.156;2023-11-19T12:53:24;1.58;;;0.47;;
15273;SDS011;7738;49.532;11.156;2023-11-19T12:55:55;2.50;;;0.50;;
15273;SDS011;7738;49.532;11.156;2023-11-19T12:58:36;3.28;;;1.00;;
15273;SDS011;7738;49.532;11.156;2023-11-19T13:01:08;3.83;;;0.90;;
15273;SDS011;7738;49.532;11.156;2023-11-19T13:03:39;2.50;;;0.43;;
15273;SDS011;7738;49.532;11.156;2023-11-19T13:06:09;1.95;;;0.40;;
15273;SDS011;7738;49.532;11.156;2023-11-19T13:08:45;2.30;;;0.55;;
15273;SDS011;7738;49.532;11.156;2023-11-19T13:11:29;2.30;;;0.50;;
15273;SDS011;7738;49.532;11.156;2023-11-19T13:14:02;2.10;;;0.65;;
15273;SDS011;7738;49.532;11.156;2023-11-19T13:16:36;1.20;;;0.50;;
15273;SDS011;7738;49.532;11.156;2023-11-19T13:19:09;1.60;;;1.17;;
15273;SDS011;7738;49.532;11.156;2023-11-19T13:21:39;3.17;;;0.38;;
15273;SDS011;7738;49.532;11.156;2023-11-19T13:24:15;3.10;;;0.40;;
15273;SDS011;7738;49.532;11.156;2023-11-19T13:26:45;2.90;;;0.40;;
15273;SDS011;7738;49.532;11.156;2023-11-19T13:29:15;2.85;;;0.52;;
15273;SDS011;7738;49.532;11.156;2023-11-19T13:31:45;1.48;;;0.38;;
15273;SDS011;7738;49.532;11.156;2023-11-19T13:34:16;1.30;;;0.55;;
15273;SDS011;7738;49.532;11.156;2023-11-19T13:36:46;3.40;;;2.20;;
15273;SDS011;7738;49.532;11.156;2023-11-19T13:39:19;4.97;;;2.33;;
15273;SDS011;7738;49.532;11.156;2023-11-19T13:41:50;0.82;;;0.73;;
15273;SDS011;7738;49.532;11.156;2023-11-19T13:44:39;3.13;;;0.60;;
15273;SDS011;7738;49.532;11.156;2023-11-19T13:47:09;0.88;;;0.43;;
15273;SDS011;7738;49.532;11.156;2023-11-19T13:49:40;3.38;;;1.27;;
15273;SDS011;7738;49.532;11.156;2023-11-19T13:52:10;6.07;;;1.05;;
15273;SDS011;7738;49.532;11.156;2023-11-19T13:54:43;2.38;;;0.65;;
15273;SDS011;7738;49.532;11.156;2023-11-19T13:57:13;1.70;;;0.40;;
15273;SDS011;7738;49.532;11.156;2023-11-19T13:59:43;2.30;;;0.55;;
15273;SDS011;7738;49.532;11.156;2023-11-19T14:02:13;3.17;;;2.03;;
15273;SDS011;7738;49.532;11.156;2023-11-19T14:04:44;1.35;;;0.20;;
15273;SDS011;7738;49.532;11.156;2023-11-19T14:07:14;6.55;;;0.40;;
15273;SDS011;7738;49.532;11.156;2023-11-19T14:09:47;2.85;;;0.40;;
15273;SDS011;7738;49.532;11.156;2023-11-19T14:12:17;1.33;;;0.20;;
15273;SDS011;7738;49.532;11.156;2023-11-19T14:14:47;2.00;;;0.30;;
15273;SDS011;7738;49.532;11.156;2023-11-19T14:17:18;2.25;;;0.68;;
15273;SDS011;7738;49.532;11.156;2023-11-19T14:19:48;3.47;;;1.10;;
15273;SDS011;7738;49.532;11.156;2023-11-19T14:22:18;1.90;;;0.80;;
15273;SDS011;7738;49.532;11.156;2023-11-19T14:24:51;3.08;;;0.50;;
15273;SDS011;7738;49.532;11.156;2023-11-19T14:27:22;4.80;;;1.00;;
15273;SDS011;7738;49.532;11.156;2023-11-19T14:29:52;1.60;;;0.20;;
15273;SDS011;7738;49.532;11.156;2023-11-19T14:32:22;2.78;;;0.30;;
15273;SDS011;7738;49.532;11.156;2023-11-19T14:34:52;1.63;;;0.57;;
15273;SDS011;7738;49.532;11.156;2023-11-19T14:37:22;0.80;;;0.25;;
15273;SDS011;7738;49.532;11.156;2023-11-19T14:39:55;1.08;;;0.60;;
15273;SDS011;7738;49.532;11.156;2023-11-19T14:42:26;2.45;;;0.43;;
15273;SDS011;7738;49.532;11.156;2023-11-19T14:44:56;2.72;;;0.80;;
15273;SDS011;7738;49.532;11.156;2023-11-19T14:47:26;1.48;;;0.70;;
15273;SDS011;7738;49.532;11.156;2023-11-19T14:49:57;2.00;;;0.20;;
15273;SDS011;7738;49.532;11.156;2023-11-19T14:52:27;0.70;;;0.32;;
15273;SDS011;7738;49.532;11.156;2023-11-19T14:55:00;0.90;;;0.30;;
15273;SDS011;7738;49.532;11.156;2023-11-19T14:57:31;2.00;;;0.30;;
15273;SDS011;7738;49.532;11.156;2023-11-19T15:00:03;1.17;;;0.47;;
15273;SDS011;7738;49.532;11.156;2023-11-19T15:02:40;3.88;;;0.80;;
15273;SDS011;7738;49.532;11.156;2023-11-19T15:05:10;4.55;;;0.40;;
15273;SDS011;7738;49.532;11.156;2023-11-19T15:07:41;3.30;;;1.20;;
15273;SDS011;7738;49.532;11.156;2023-11-19T15:10:14;3.58;;;1.20;;
15273;SDS011;7738;49.532;11.156;2023-11-19T15:12:44;4.03;;;0.50;;
15273;SDS011;7738;49.532;11.156;2023-11-19T15:15:14;1.20;;;0.30;;
15273;SDS011;7738;49.532;11.156;2023-11-19T15:18:02;4.03;;;1.17;;
15273;SDS011;7738;49.532;11.156;2023-11-19T15:20:32;1.55;;;0.40;;